Time;durP1;ratioP1;P1;durP2;ratioP2;P2;SDS_P1;SDS_P2;PMS_P1;PMS_P2;Temp;Humidity;BMP_temperature;BMP_pressure;BME280_temperature;BME280_humidity;BME280_pressure;Samples;Min_cycle;Max_cycle;Signal;HPM_P1;HPM_P2
2022/05/30 00:03:22;;;;;;;0.30;0.30;;;17.80;99.90;;;;;;20702636;28;20223;-71
2022/05/30 00:13:24;;;;;;;0.23;0.23;;;;;;;;;;20717469;28;20655;-71
2022/05/30 00:23:26;;;;;;;0.33;0.30;;;;;;;;;;20712457;28;20215;-71
2022/05/30 00:33:29;;;;;;;0.40;0.40;;;15.30;99.90;;;;;;20706249;28;20792;-71
2022/05/30 00:43:32;;;;;;;0.30;0.30;;;;;;;;;;20738179;28;20222;-71
2022/05/30 00:53:34;;;;;;;0.30;0.30;;;;;;;;;;20723229;28;20223;-71
2022/05/30 01:13:57;;;;;;;0.30;0.30;;;;;;;;;;20752919;28;20594;-71
2022/05/30 01:24:19;;;;;;;0.20;0.20;;;14.60;99.90;;;;;;20760395;28;20215;-71
2022/05/30 01:34:56;;;;;;;0.40;0.30;;;;;;;;;;20703469;28;20756;-71
2022/05/30 01:45:07;;;;;;;1.20;0.40;;;14.70;99.90;;;;;;20750608;28;20198;-71
2022/05/30 01:55:10;;;;;;;0.50;0.40;;;;;;;;;;20734172;28;20249;-71
2022/05/30 02:05:33;;;;;;;0.43;0.40;;;14.20;99.90;;;;;;20719795;28;20211;-70
2022/05/30 02:17:00;;;;;;;0.40;0.30;;;;;;;;;;20731791;28;20695;-70
2022/05/30 02:25:57;;;;;;;0.93;0.30;;;;;;;;;;20717559;28;20211;-70
2022/05/30 02:46:19;;;;;;;0.80;0.40;;;;;;;;;;20746193;28;20183;-70
2022/05/30 02:56:22;;;;;;;0.50;0.40;;;;;;;;;;20736518;28;20593;-70
2022/05/30 03:06:26;;;;;;;0.50;0.30;;;13.90;99.90;;;;;;20724884;28;20210;-70
2022/05/30 03:16:28;;;;;;;0.53;0.40;;;;;;;;;;20638650;23;20232;-75
2022/05/30 03:26:30;;;;;;;1.77;0.70;;;;;;;;;;20644298;28;20223;-76
2022/05/30 03:36:43;;;;;;;1.27;0.60;;;;;;;;;;20596117;28;20286;-76
2022/05/30 03:47:04;;;;;;;0.73;0.40;;;;;;;;;;20633050;28;20220;-75
2022/05/30 03:57:06;;;;;;;0.70;0.50;;;;;;;;;;20653737;28;20228;-76
2022/05/30 04:07:07;;;;;;;1.33;0.47;;;;;;;;;;20646316;28;20208;-73
2022/05/30 04:17:26;;;;;;;0.47;0.30;;;;;;;;;;20649299;28;20220;-76
2022/05/30 04:27:28;;;;;;;3.07;0.53;;;;;;;;;;20658059;28;20286;-76
2022/05/30 04:37:36;;;;;;;2.03;0.60;;;;;;;;;;20641353;28;20773;-75
2022/05/30 04:48:04;;;;;;;1.70;1.00;;;;;;;;;;20655819;28;20711;-76
2022/05/30 04:58:06;;;;;;;0.97;0.50;;;;;;;;;;20640382;28;20216;-75
2022/05/30 05:08:28;;;;;;;3.30;0.70;;;;;;;;;;20655308;28;20224;-75
2022/05/30 05:18:49;;;;;;;0.93;0.67;;;;;;;;;;20657222;28;20756;-75
2022/05/30 05:28:51;;;;;;;2.17;0.63;;;14.00;99.90;;;;;;20665343;28;20623;-76
2022/05/30 05:38:54;;;;;;;0.70;0.60;;;;;;;;;;20658191;28;20260;-77
2022/05/30 05:49:25;;;;;;;1.33;0.80;;;;;;;;;;20668739;28;20224;-77
2022/05/30 05:59:27;;;;;;;0.97;0.60;;;;;;;;;;20671571;28;20266;-77
2022/05/30 06:09:29;;;;;;;0.97;0.60;;;;;;;;;;20625391;28;20244;-76
2022/05/30 06:19:34;;;;;;;1.37;0.80;;;;;;;;;;20664635;28;20709;-77
2022/05/30 06:29:38;;;;;;;2.17;0.70;;;;;;;;;;20634302;28;20274;-76
2022/05/30 06:39:40;;;;;;;1.33;0.60;;;15.10;99.90;;;;;;20664258;28;20683;-76
2022/05/30 06:49:50;;;;;;;1.20;0.80;;;15.30;99.90;;;;;;20641272;28;20283;-77
2022/05/30 06:59:57;;;;;;;1.13;0.70;;;;;;;;;;20636640;28;20243;-78
2022/05/30 07:09:59;;;;;;;1.13;0.60;;;;;;;;;;20651281;28;20754;-76
2022/05/30 07:20:13;;;;;;;0.80;0.50;;;;;;;;;;20606904;28;20271;-78
2022/05/30 07:30:35;;;;;;;1.40;0.80;;;;;;;;;;20646673;28;20232;-77
2022/05/30 07:40:56;;;;;;;1.40;0.80;;;;;;;;;;20661492;28;20212;-77
2022/05/30 07:50:58;;;;;;;1.27;0.80;;;;;;;;;;20667367;28;20239;-78
2022/05/30 08:01:15;;;;;;;1.23;0.50;;;;;;;;;;20679702;28;20683;-77
2022/05/30 08:11:17;;;;;;;1.57;0.63;;;;;;;;;;20630957;28;20228;-77
2022/05/30 08:21:25;;;;;;;1.23;0.50;;;;;;;;;;20656240;28;20683;-77
2022/05/30 08:31:33;;;;;;;1.57;0.50;;;;;;;;;;20655459;28;20251;-77
2022/05/30 08:42:04;;;;;;;0.97;0.57;;;;;;;;;;20653723;28;20216;-77
2022/05/30 08:52:39;;;;;;;1.80;0.73;;;;;;;;;;20636304;28;20247;-77
2022/05/30 09:02:48;;;;;;;0.93;0.50;;;;;;;;;;20635719;28;20301;-77
2022/05/30 09:12:50;;;;;;;2.40;0.60;;;;;;;;;;20656509;28;20282;-77
2022/05/30 09:23:01;;;;;;;1.37;0.63;;;;;;;;;;20880134;22;20255;-70
2022/05/30 09:33:04;;;;;;;1.00;0.50;;;;;;;;;;20888750;28;20343;-71
2022/05/30 09:43:39;;;;;;;1.43;0.57;;;;;;;;;;20903142;28;20276;-72
2022/05/30 09:53:47;;;;;;;0.43;0.30;;;19.70;89.10;;;;;;20865339;28;20230;-70
2022/05/30 10:03:59;;;;;;;0.93;0.40;;;;;;;;;;20818643;28;20256;-70
2022/05/30 10:14:20;;;;;;;0.60;0.30;;;;;;;;;;20858495;28;20564;-71
2022/05/30 10:35:31;;;;;;;0.30;0.30;;;;;;;;;;20885823;28;20248;-71
2022/05/30 10:45:53;;;;;;;0.53;0.30;;;;;;;;;;20847232;28;20209;-71
2022/05/30 10:55:57;;;;;;;0.40;0.30;;;;;;;;;;20854702;28;20220;-72
2022/05/30 11:06:16;;;;;;;0.40;0.30;;;;;;;;;;20857849;28;20231;-71
2022/05/30 11:16:42;;;;;;;0.43;0.30;;;;;;;;;;20865458;28;20597;-70
2022/05/30 11:26:55;;;;;;;0.53;0.30;;;19.00;84.20;;;;;;20880878;28;20816;-71
2022/05/30 11:37:03;;;;;;;1.10;1.00;;;;;;;;;;20870937;28;20511;-71
2022/05/30 11:47:05;;;;;;;0.50;0.20;;;;;;;;;;20876005;28;20212;-72
2022/05/30 11:57:30;;;;;;;0.60;0.20;;;20.50;81.90;;;;;;20872800;28;20234;-71
2022/05/30 12:07:38;;;;;;;0.30;0.30;;;;;;;;;;20898543;28;20501;-72
2022/05/30 12:28:29;;;;;;;0.87;0.27;;;;;;;;;;20884141;28;20213;-72
2022/05/30 12:38:52;;;;;;;0.70;0.33;;;22.50;84.70;;;;;;20858221;28;20220;-73
2022/05/30 12:49:00;;;;;;;0.30;0.30;;;;;;;;;;20869219;28;20220;-72
2022/05/30 12:59:22;;;;;;;0.60;0.40;;;;;;;;;;20882249;28;20271;-71
2022/05/30 13:09:33;;;;;;;0.20;0.20;;;21.80;81.00;;;;;;20890812;28;20232;-70
2022/05/30 13:19:41;;;;;;;1.67;0.40;;;;;;;;;;20894099;28;20312;-69
2022/05/30 13:29:43;;;;;;;0.87;0.30;;;;;;;;;;20895297;28;20229;-69
2022/05/30 13:39:52;;;;;;;0.37;0.30;;;;;;;;;;20814564;28;20267;-69
2022/05/30 13:49:59;;;;;;;0.30;0.20;;;;;;;;;;20860936;28;20700;-69
2022/05/30 14:00:04;;;;;;;0.27;0.27;;;;;;;;;;20824186;28;20215;-70
2022/05/30 14:10:08;;;;;;;0.30;0.30;;;;;;;;;;20894787;28;20704;-69
2022/05/30 14:20:26;;;;;;;1.80;0.40;;;;;;;;;;20892755;28;20490;-69
2022/05/30 14:30:33;;;;;;;0.40;0.30;;;21.30;77.70;;;;;;20893488;28;20279;-69
2022/05/30 14:40:49;;;;;;;1.17;0.27;;;22.20;84.90;;;;;;20892120;28;20287;-69
2022/05/30 14:50:52;;;;;;;0.50;0.27;;;;;;;;;;20846718;28;20225;-68
2022/05/30 15:01:01;;;;;;;0.20;0.20;;;;;;;;;;20867176;28;20265;-69
2022/05/30 15:11:19;;;;;;;0.40;0.20;;;;;;;;;;20900474;28;20291;-69
2022/05/30 15:21:35;;;;;;;0.20;0.20;;;;;;;;;;20926795;22;20294;-71
2022/05/30 15:31:39;;;;;;;0.20;0.20;;;23.70;86.00;;;;;;20948735;28;20225;-72
2022/05/30 15:41:43;;;;;;;0.68;0.30;;;;;;;;;;20957858;28;20720;-73
2022/05/30 15:51:49;;;;;;;1.80;0.40;;;23.40;79.60;;;;;;20951610;28;20227;-73
2022/05/30 16:01:52;;;;;;;1.48;0.40;;;;;;;;;;20947381;28;20255;-73
2022/05/30 16:11:54;;;;;;;0.63;0.30;;;;;;;;;;20936692;28;20858;-72
2022/05/30 16:21:59;;;;;;;0.93;0.40;;;23.20;85.10;;;;;;20955132;28;20257;-72
2022/05/30 16:32:02;;;;;;;0.83;0.37;;;;;;;;;;20944086;28;20562;-72
2022/05/30 16:42:05;;;;;;;2.75;0.55;;;;;;;;;;20943028;28;20222;-72
2022/05/30 16:52:08;;;;;;;0.27;0.20;;;;;;;;;;20932337;28;20221;-73
2022/05/30 17:02:11;;;;;;;0.35;0.20;;;;;;;;;;20935654;28;20219;-73
2022/05/30 17:12:12;;;;;;;0.52;0.22;;;;;;;;;;20852110;23;20299;-72
2022/05/30 17:22:14;;;;;;;0.43;0.30;;;;;;;;;;20767907;28;20282;-72
2022/05/30 17:32:18;;;;;;;0.20;0.20;;;;;;;;;;20766017;28;20267;-72
2022/05/30 17:42:22;;;;;;;1.10;0.33;;;;;;;;;;20764773;28;20217;-72
2022/05/30 17:52:27;;;;;;;1.40;0.23;;;;;;;;;;20757558;28;20291;-71
2022/05/30 18:02:29;;;;;;;1.37;0.50;;;;;;;;;;20765646;28;20215;-72
2022/05/30 18:12:35;;;;;;;0.20;0.20;;;;;;;;;;20742556;28;20899;-72
2022/05/30 18:22:42;;;;;;;1.07;0.30;;;20.80;79.50;;;;;;20768420;28;20217;-72
2022/05/30 18:32:48;;;;;;;0.47;0.23;;;;;;;;;;20753569;28;20295;-72
2022/05/30 18:43:07;;;;;;;0.70;0.30;;;;;;;;;;20773242;28;20226;-72
2022/05/30 18:53:13;;;;;;;0.30;0.30;;;;;;;;;;20802220;28;20214;-72
2022/05/30 19:03:20;;;;;;;0.70;0.33;;;;;;;;;;20763572;28;21044;-72
2022/05/30 19:13:24;;;;;;;0.77;0.33;;;;;;;;;;20764078;28;20225;-72
2022/05/30 19:23:26;;;;;;;0.70;0.30;;;;;;;;;;20778288;28;20218;-72
2022/05/30 19:33:29;;;;;;;0.30;0.20;;;;;;;;;;20751489;28;20231;-73
2022/05/30 19:43:31;;;;;;;1.53;0.67;;;;;;;;;;20731113;28;20646;-73
2022/05/30 19:53:33;;;;;;;0.53;0.40;;;;;;;;;;20771281;28;20222;-73
2022/05/30 20:03:36;;;;;;;0.33;0.30;;;;;;;;;;20756379;28;20225;-73
2022/05/30 20:13:37;;;;;;;0.57;0.43;;;;;;;;;;20821890;28;20770;-73
2022/05/30 20:23:40;;;;;;;0.53;0.30;;;;;;;;;;20779526;28;20450;-73
2022/05/30 20:33:42;;;;;;;2.77;0.50;;;;;;;;;;20764805;28;20217;-74
2022/05/30 20:43:44;;;;;;;1.67;0.50;;;;;;;;;;20754873;28;20217;-76
2022/05/30 20:53:48;;;;;;;4.90;0.67;;;;;;;;;;20769982;28;20232;-74
2022/05/30 21:03:50;;;;;;;1.60;0.70;;;;;;;;;;20795237;28;20278;-74
2022/05/30 21:14:03;;;;;;;0.73;0.50;;;;;;;;;;20792687;28;20262;-73
2022/05/30 21:24:05;;;;;;;0.83;0.50;;;;;;;;;;20805438;23;20293;-84
2022/05/30 21:34:12;;;;;;;1.43;0.60;;;18.30;98.80;;;;;;20802086;28;20213;-84
2022/05/30 21:44:14;;;;;;;1.77;0.60;;;;;;;;;;20831662;28;20218;-87
2022/05/30 21:54:16;;;;;;;1.50;0.50;;;;;;;;;;20971442;28;20249;-87
2022/05/30 22:04:18;;;;;;;4.93;0.80;;;;;;;;;;20916771;28;20215;-87
2022/05/30 22:14:20;;;;;;;1.63;0.60;;;;;;;;;;20818970;28;20226;-87
2022/05/30 22:24:37;;;;;;;1.13;0.63;;;;;;;;;;20799499;28;20285;-85
2022/05/30 22:34:39;;;;;;;0.80;0.50;;;;;;;;;;20797708;28;20234;-85
2022/05/30 22:44:41;;;;;;;1.10;0.50;;;;;;;;;;20797890;28;20257;-84
2022/05/30 22:54:42;;;;;;;0.83;0.50;;;;;;;;;;20797338;28;20676;-84
2022/05/30 23:04:45;;;;;;;0.90;0.50;;;;;;;;;;20829284;28;20265;-84
2022/05/30 23:14:46;;;;;;;1.07;0.40;;;;;;;;;;20795220;28;20333;-85
2022/05/30 23:24:48;;;;;;;0.77;0.57;;;;;;;;;;20811809;28;20284;-85
2022/05/30 23:34:50;;;;;;;0.83;0.53;;;;;;;;;;20795081;28;20296;-85
2022/05/30 23:44:53;;;;;;;1.50;0.70;;;;;;;;;;20811897;28;20677;-84
2022/05/30 23:54:55;;;;;;;0.90;0.60;;;;;;;;;;20810624;28;20230;-84
